sensor_id;sensor_type;location;lat;lon;timestamp;P1;durP1;ratioP1;P2;durP2;ratioP2
46845;SDS011;33947;46.804;134.252;2022-12-18T00:01:26;64.65;;;29.40;;
46845;SDS011;33947;46.804;134.252;2022-12-18T00:04:34;6.78;;;5.28;;
46845;SDS011;33947;46.804;134.252;2022-12-18T00:07:39;74.05;;;26.20;;
46845;SDS011;33947;46.804;134.252;2022-12-18T00:13:49;134.40;;;52.13;;
46845;SDS011;33947;46.804;134.252;2022-12-18T00:16:57;199.18;;;75.20;;
46845;SDS011;33947;46.804;134.252;2022-12-18T00:20:04;108.72;;;47.03;;
46845;SDS011;33947;46.804;134.252;2022-12-18T00:23:09;85.43;;;43.20;;
46845;SDS011;33947;46.804;134.252;2022-12-18T00:26:24;48.50;;;31.90;;
46845;SDS011;33947;46.804;134.252;2022-12-18T00:29:33;157.35;;;59.15;;
46845;SDS011;33947;46.804;134.252;2022-12-18T00:32:41;84.55;;;42.33;;
46845;SDS011;33947;46.804;134.252;2022-12-18T00:35:45;125.45;;;51.83;;
46845;SDS011;33947;46.804;134.252;2022-12-18T00:38:50;121.57;;;51.05;;
46845;SDS011;33947;46.804;134.252;2022-12-18T00:41:55;124.95;;;52.83;;
46845;SDS011;33947;46.804;134.252;2022-12-18T00:45:17;215.20;;;77.00;;
46845;SDS011;33947;46.804;134.252;2022-12-18T00:48:26;58.80;;;26.08;;
46845;SDS011;33947;46.804;134.252;2022-12-18T00:51:31;25.73;;;12.73;;
46845;SDS011;33947;46.804;134.252;2022-12-18T00:54:36;42.50;;;13.60;;
46845;SDS011;33947;46.804;134.252;2022-12-18T00:57:40;47.00;;;17.92;;
46845;SDS011;33947;46.804;134.252;2022-12-18T01:00:47;45.22;;;17.10;;
46845;SDS011;33947;46.804;134.252;2022-12-18T01:06:58;12.50;;;7.88;;
46845;SDS011;33947;46.804;134.252;2022-12-18T01:10:04;41.83;;;16.38;;
46845;SDS011;33947;46.804;134.252;2022-12-18T01:13:10;157.35;;;55.28;;
46845;SDS011;33947;46.804;134.252;2022-12-18T01:16:15;127.93;;;45.70;;
46845;SDS011;33947;46.804;134.252;2022-12-18T01:19:21;46.80;;;18.15;;
46845;SDS011;33947;46.804;134.252;2022-12-18T01:22:26;24.30;;;14.40;;
46845;SDS011;33947;46.804;134.252;2022-12-18T01:25:30;8.52;;;7.60;;
46845;SDS011;33947;46.804;134.252;2022-12-18T01:28:35;20.65;;;15.80;;
46845;SDS011;33947;46.804;134.252;2022-12-18T01:31:42;25.90;;;20.85;;
46845;SDS011;33947;46.804;134.252;2022-12-18T01:34:47;15.23;;;12.25;;
46845;SDS011;33947;46.804;134.252;2022-12-18T01:37:54;56.55;;;26.60;;
46845;SDS011;33947;46.804;134.252;2022-12-18T01:41:00;54.95;;;22.33;;
46845;SDS011;33947;46.804;134.252;2022-12-18T01:44:46;56.50;;;25.73;;
46845;SDS011;33947;46.804;134.252;2022-12-18T01:47:48;8.93;;;7.60;;
46845;SDS011;33947;46.804;134.252;2022-12-18T01:50:55;15.07;;;10.63;;
46845;SDS011;33947;46.804;134.252;2022-12-18T01:54:02;44.70;;;22.02;;
46845;SDS011;33947;46.804;134.252;2022-12-18T01:57:07;24.60;;;14.82;;
46845;SDS011;33947;46.804;134.252;2022-12-18T02:00:17;29.92;;;9.77;;
46845;SDS011;33947;46.804;134.252;2022-12-18T02:03:26;15.68;;;10.00;;
46845;SDS011;33947;46.804;134.252;2022-12-18T02:06:35;17.58;;;10.32;;
46845;SDS011;33947;46.804;134.252;2022-12-18T02:09:47;66.47;;;23.95;;
46845;SDS011;33947;46.804;134.252;2022-12-18T02:13:37;21.88;;;12.38;;
46845;SDS011;33947;46.804;134.252;2022-12-18T02:23:42;16.00;;;9.90;;
46845;SDS011;33947;46.804;134.252;2022-12-18T02:27:01;6.57;;;4.38;;
46845;SDS011;33947;46.804;134.252;2022-12-18T02:30:09;13.73;;;7.13;;
46845;SDS011;33947;46.804;134.252;2022-12-18T02:33:15;7.93;;;3.85;;
46845;SDS011;33947;46.804;134.252;2022-12-18T02:36:26;9.20;;;4.10;;
46845;SDS011;33947;46.804;134.252;2022-12-18T02:39:33;11.48;;;4.95;;
46845;SDS011;33947;46.804;134.252;2022-12-18T02:42:41;8.55;;;4.35;;
46845;SDS011;33947;46.804;134.252;2022-12-18T02:45:54;5.10;;;3.00;;
46845;SDS011;33947;46.804;134.252;2022-12-18T02:59:15;11.90;;;6.55;;
46845;SDS011;33947;46.804;134.252;2022-12-18T03:02:36;13.23;;;4.32;;
46845;SDS011;33947;46.804;134.252;2022-12-18T03:06:06;4.03;;;3.20;;
46845;SDS011;33947;46.804;134.252;2022-12-18T03:09:20;5.03;;;3.58;;
46845;SDS011;33947;46.804;134.252;2022-12-18T03:12:34;5.45;;;2.97;;
46845;SDS011;33947;46.804;134.252;2022-12-18T03:15:48;4.85;;;3.00;;
46845;SDS011;33947;46.804;134.252;2022-12-18T03:19:01;5.47;;;2.85;;
46845;SDS011;33947;46.804;134.252;2022-12-18T03:22:11;13.88;;;4.63;;
46845;SDS011;33947;46.804;134.252;2022-12-18T03:25:24;7.65;;;5.10;;
46845;SDS011;33947;46.804;134.252;2022-12-18T03:28:31;5.93;;;3.83;;
46845;SDS011;33947;46.804;134.252;2022-12-18T03:31:45;31.95;;;9.05;;
46845;SDS011;33947;46.804;134.252;2022-12-18T03:35:07;59.42;;;17.75;;
46845;SDS011;33947;46.804;134.252;2022-12-18T03:38:15;44.00;;;18.13;;
46845;SDS011;33947;46.804;134.252;2022-12-18T03:45:11;6.82;;;3.97;;
46845;SDS011;33947;46.804;134.252;2022-12-18T03:48:44;4.43;;;3.53;;
46845;SDS011;33947;46.804;134.252;2022-12-18T03:52:00;11.15;;;4.13;;
46845;SDS011;33947;46.804;134.252;2022-12-18T03:55:11;125.05;;;35.72;;
46845;SDS011;33947;46.804;134.252;2022-12-18T03:58:19;28.27;;;10.20;;
46845;SDS011;33947;46.804;134.252;2022-12-18T04:01:45;7.88;;;6.55;;
46845;SDS011;33947;46.804;134.252;2022-12-18T04:04:52;21.85;;;8.88;;
46845;SDS011;33947;46.804;134.252;2022-12-18T04:08:04;6.82;;;2.40;;
46845;SDS011;33947;46.804;134.252;2022-12-18T04:11:12;19.98;;;8.35;;
46845;SDS011;33947;46.804;134.252;2022-12-18T04:14:19;84.70;;;35.85;;
46845;SDS011;33947;46.804;134.252;2022-12-18T04:17:28;64.00;;;17.67;;
46845;SDS011;33947;46.804;134.252;2022-12-18T04:20:33;8.50;;;3.28;;
46845;SDS011;33947;46.804;134.252;2022-12-18T04:23:37;5.10;;;1.63;;
46845;SDS011;33947;46.804;134.252;2022-12-18T04:29:51;10.27;;;3.78;;
46845;SDS011;33947;46.804;134.252;2022-12-18T04:32:55;24.92;;;7.68;;
46845;SDS011;33947;46.804;134.252;2022-12-18T04:36:00;24.15;;;7.65;;
46845;SDS011;33947;46.804;134.252;2022-12-18T04:39:05;12.65;;;6.70;;
46845;SDS011;33947;46.804;134.252;2022-12-18T04:42:10;3.58;;;2.72;;
46845;SDS011;33947;46.804;134.252;2022-12-18T04:45:16;5.25;;;2.10;;
46845;SDS011;33947;46.804;134.252;2022-12-18T04:48:20;36.00;;;19.52;;
46845;SDS011;33947;46.804;134.252;2022-12-18T04:51:28;21.67;;;7.97;;
46845;SDS011;33947;46.804;134.252;2022-12-18T04:54:32;13.70;;;4.97;;
46845;SDS011;33947;46.804;134.252;2022-12-18T04:57:37;15.07;;;4.60;;
46845;SDS011;33947;46.804;134.252;2022-12-18T05:00:42;18.33;;;5.95;;
46845;SDS011;33947;46.804;134.252;2022-12-18T05:03:47;131.95;;;44.13;;
46845;SDS011;33947;46.804;134.252;2022-12-18T05:06:52;6.72;;;4.75;;
46845;SDS011;33947;46.804;134.252;2022-12-18T05:09:56;16.33;;;4.30;;
46845;SDS011;33947;46.804;134.252;2022-12-18T05:13:01;10.95;;;4.45;;
46845;SDS011;33947;46.804;134.252;2022-12-18T05:16:05;9.13;;;5.43;;
46845;SDS011;33947;46.804;134.252;2022-12-18T05:19:10;5.97;;;2.72;;
46845;SDS011;33947;46.804;134.252;2022-12-18T05:25:20;3.97;;;3.58;;
46845;SDS011;33947;46.804;134.252;2022-12-18T05:28:26;11.55;;;5.10;;
46845;SDS011;33947;46.804;134.252;2022-12-18T05:31:32;11.50;;;5.28;;
46845;SDS011;33947;46.804;134.252;2022-12-18T05:34:41;19.67;;;5.50;;
46845;SDS011;33947;46.804;134.252;2022-12-18T05:37:46;9.57;;;3.42;;
46845;SDS011;33947;46.804;134.252;2022-12-18T05:40:51;72.68;;;29.90;;
46845;SDS011;33947;46.804;134.252;2022-12-18T05:43:56;58.33;;;11.95;;
46845;SDS011;33947;46.804;134.252;2022-12-18T05:47:00;15.52;;;3.92;;
46845;SDS011;33947;46.804;134.252;2022-12-18T05:50:05;10.88;;;4.90;;
46845;SDS011;33947;46.804;134.252;2022-12-18T05:53:11;10.10;;;5.25;;
46845;SDS011;33947;46.804;134.252;2022-12-18T05:56:17;12.48;;;6.32;;
46845;SDS011;33947;46.804;134.252;2022-12-18T05:59:24;21.08;;;10.25;;
46845;SDS011;33947;46.804;134.252;2022-12-18T06:02:29;25.27;;;10.30;;
46845;SDS011;33947;46.804;134.252;2022-12-18T06:05:38;4.72;;;3.17;;
46845;SDS011;33947;46.804;134.252;2022-12-18T06:08:44;17.25;;;6.65;;
46845;SDS011;33947;46.804;134.252;2022-12-18T06:11:50;13.73;;;6.70;;
46845;SDS011;33947;46.804;134.252;2022-12-18T06:14:56;12.70;;;6.22;;
46845;SDS011;33947;46.804;134.252;2022-12-18T06:18:00;8.43;;;5.10;;
46845;SDS011;33947;46.804;134.252;2022-12-18T06:21:05;15.40;;;5.97;;
46845;SDS011;33947;46.804;134.252;2022-12-18T06:24:09;16.17;;;7.25;;
46845;SDS011;33947;46.804;134.252;2022-12-18T06:27:14;9.10;;;4.47;;
46845;SDS011;33947;46.804;134.252;2022-12-18T06:33:26;5.88;;;4.57;;
46845;SDS011;33947;46.804;134.252;2022-12-18T06:36:31;4.60;;;3.33;;
46845;SDS011;33947;46.804;134.252;2022-12-18T06:39:37;9.57;;;6.07;;
46845;SDS011;33947;46.804;134.252;2022-12-18T06:42:41;9.68;;;5.15;;
46845;SDS011;33947;46.804;134.252;2022-12-18T06:45:46;7.00;;;6.28;;
46845;SDS011;33947;46.804;134.252;2022-12-18T06:48:55;28.08;;;14.73;;
46845;SDS011;33947;46.804;134.252;2022-12-18T06:52:00;26.88;;;14.68;;
46845;SDS011;33947;46.804;134.252;2022-12-18T06:55:05;24.77;;;11.38;;
46845;SDS011;33947;46.804;134.252;2022-12-18T06:58:14;10.23;;;5.55;;
46845;SDS011;33947;46.804;134.252;2022-12-18T07:01:19;12.23;;;9.25;;
46845;SDS011;33947;46.804;134.252;2022-12-18T07:04:28;22.38;;;9.77;;
46845;SDS011;33947;46.804;134.252;2022-12-18T07:07:34;14.98;;;3.35;;
46845;SDS011;33947;46.804;134.252;2022-12-18T07:13:54;14.82;;;6.18;;
46845;SDS011;33947;46.804;134.252;2022-12-18T07:17:01;20.60;;;9.48;;
46845;SDS011;33947;46.804;134.252;2022-12-18T07:20:08;5.90;;;2.85;;
46845;SDS011;33947;46.804;134.252;2022-12-18T07:23:13;12.32;;;4.22;;
46845;SDS011;33947;46.804;134.252;2022-12-18T07:26:19;10.10;;;3.95;;
46845;SDS011;33947;46.804;134.252;2022-12-18T07:29:25;12.93;;;4.47;;
46845;SDS011;33947;46.804;134.252;2022-12-18T07:32:29;12.07;;;5.13;;
46845;SDS011;33947;46.804;134.252;2022-12-18T07:35:34;7.30;;;4.90;;
46845;SDS011;33947;46.804;134.252;2022-12-18T07:38:42;11.50;;;6.10;;
46845;SDS011;33947;46.804;134.252;2022-12-18T07:45:11;12.00;;;7.18;;
46845;SDS011;33947;46.804;134.252;2022-12-18T07:48:15;17.88;;;10.80;;
46845;SDS011;33947;46.804;134.252;2022-12-18T07:51:19;9.60;;;7.05;;
46845;SDS011;33947;46.804;134.252;2022-12-18T07:54:24;18.85;;;6.82;;
46845;SDS011;33947;46.804;134.252;2022-12-18T07:57:29;27.65;;;12.05;;
46845;SDS011;33947;46.804;134.252;2022-12-18T08:00:54;36.30;;;16.10;;
46845;SDS011;33947;46.804;134.252;2022-12-18T08:04:08;20.10;;;11.25;;
46845;SDS011;33947;46.804;134.252;2022-12-18T08:07:12;18.33;;;10.07;;
46845;SDS011;33947;46.804;134.252;2022-12-18T08:10:17;18.75;;;12.07;;
46845;SDS011;33947;46.804;134.252;2022-12-18T08:13:22;12.35;;;7.68;;
46845;SDS011;33947;46.804;134.252;2022-12-18T08:16:27;15.60;;;8.38;;
46845;SDS011;33947;46.804;134.252;2022-12-18T08:22:37;2.80;;;2.50;;
46845;SDS011;33947;46.804;134.252;2022-12-18T08:25:42;7.53;;;4.55;;
46845;SDS011;33947;46.804;134.252;2022-12-18T08:28:49;7.25;;;4.40;;
46845;SDS011;33947;46.804;134.252;2022-12-18T08:31:54;8.43;;;5.60;;
46845;SDS011;33947;46.804;134.252;2022-12-18T08:34:59;10.88;;;4.85;;
46845;SDS011;33947;46.804;134.252;2022-12-18T08:41:10;10.00;;;7.22;;
46845;SDS011;33947;46.804;134.252;2022-12-18T08:44:15;13.65;;;7.45;;
46845;SDS011;33947;46.804;134.252;2022-12-18T08:47:41;20.08;;;7.53;;
46845;SDS011;33947;46.804;134.252;2022-12-18T08:53:59;9.30;;;5.72;;
46845;SDS011;33947;46.804;134.252;2022-12-18T08:57:06;21.23;;;7.65;;
46845;SDS011;33947;46.804;134.252;2022-12-18T09:00:10;26.02;;;12.45;;
46845;SDS011;33947;46.804;134.252;2022-12-18T09:03:17;10.05;;;6.63;;
46845;SDS011;33947;46.804;134.252;2022-12-18T09:06:23;10.45;;;5.05;;
46845;SDS011;33947;46.804;134.252;2022-12-18T09:12:31;8.43;;;5.70;;
46845;SDS011;33947;46.804;134.252;2022-12-18T09:15:42;7.70;;;4.85;;
46845;SDS011;33947;46.804;134.252;2022-12-18T09:18:48;11.18;;;4.55;;
46845;SDS011;33947;46.804;134.252;2022-12-18T09:21:53;6.45;;;5.57;;
46845;SDS011;33947;46.804;134.252;2022-12-18T09:28:04;20.30;;;7.03;;
46845;SDS011;33947;46.804;134.252;2022-12-18T09:31:12;19.17;;;9.27;;
46845;SDS011;33947;46.804;134.252;2022-12-18T09:34:19;16.50;;;11.52;;
46845;SDS011;33947;46.804;134.252;2022-12-18T09:37:25;29.58;;;14.27;;
46845;SDS011;33947;46.804;134.252;2022-12-18T09:40:32;47.53;;;24.20;;
46845;SDS011;33947;46.804;134.252;2022-12-18T09:43:41;127.63;;;42.20;;
46845;SDS011;33947;46.804;134.252;2022-12-18T09:47:07;78.15;;;27.92;;
46845;SDS011;33947;46.804;134.252;2022-12-18T09:50:30;137.30;;;52.35;;
46845;SDS011;33947;46.804;134.252;2022-12-18T09:53:41;92.45;;;34.65;;
46845;SDS011;33947;46.804;134.252;2022-12-18T09:56:51;22.88;;;16.15;;
46845;SDS011;33947;46.804;134.252;2022-12-18T10:00:02;21.73;;;12.45;;
46845;SDS011;33947;46.804;134.252;2022-12-18T10:03:28;33.00;;;13.75;;
46845;SDS011;33947;46.804;134.252;2022-12-18T10:21:09;55.13;;;29.30;;
46845;SDS011;33947;46.804;134.252;2022-12-18T10:27:42;106.25;;;42.67;;
46845;SDS011;33947;46.804;134.252;2022-12-18T10:33:51;119.45;;;49.22;;
46845;SDS011;33947;46.804;134.252;2022-12-18T10:37:00;169.27;;;55.08;;
46845;SDS011;33947;46.804;134.252;2022-12-18T10:40:14;128.07;;;54.80;;
46845;SDS011;33947;46.804;134.252;2022-12-18T10:43:39;106.63;;;41.58;;
46845;SDS011;33947;46.804;134.252;2022-12-18T10:46:45;245.82;;;75.13;;
46845;SDS011;33947;46.804;134.252;2022-12-18T10:49:52;181.77;;;68.57;;
46845;SDS011;33947;46.804;134.252;2022-12-18T10:52:59;171.45;;;72.22;;
46845;SDS011;33947;46.804;134.252;2022-12-18T10:56:07;56.45;;;33.10;;
46845;SDS011;33947;46.804;134.252;2022-12-18T10:59:12;179.55;;;65.13;;
46845;SDS011;33947;46.804;134.252;2022-12-18T11:05:35;437.80;;;130.10;;
46845;SDS011;33947;46.804;134.252;2022-12-18T11:08:41;219.75;;;96.60;;
46845;SDS011;33947;46.804;134.252;2022-12-18T11:11:51;145.80;;;63.45;;
46845;SDS011;33947;46.804;134.252;2022-12-18T11:15:00;107.43;;;52.45;;
46845;SDS011;33947;46.804;134.252;2022-12-18T11:18:15;118.82;;;51.15;;
46845;SDS011;33947;46.804;134.252;2022-12-18T11:21:24;147.55;;;55.42;;
46845;SDS011;33947;46.804;134.252;2022-12-18T11:24:34;172.77;;;65.72;;
46845;SDS011;33947;46.804;134.252;2022-12-18T11:27:39;96.78;;;41.67;;
46845;SDS011;33947;46.804;134.252;2022-12-18T11:33:52;83.88;;;39.90;;
46845;SDS011;33947;46.804;134.252;2022-12-18T11:37:23;91.28;;;28.80;;
46845;SDS011;33947;46.804;134.252;2022-12-18T11:40:35;75.63;;;37.78;;
46845;SDS011;33947;46.804;134.252;2022-12-18T11:50:32;41.65;;;21.20;;
46845;SDS011;33947;46.804;134.252;2022-12-18T11:53:41;79.30;;;37.35;;
46845;SDS011;33947;46.804;134.252;2022-12-18T11:56:58;53.85;;;28.45;;
46845;SDS011;33947;46.804;134.252;2022-12-18T12:00:27;49.40;;;24.90;;
46845;SDS011;33947;46.804;134.252;2022-12-18T12:06:59;55.22;;;21.75;;
46845;SDS011;33947;46.804;134.252;2022-12-18T12:13:43;45.75;;;19.95;;
46845;SDS011;33947;46.804;134.252;2022-12-18T12:20:58;12.27;;;5.57;;
46845;SDS011;33947;46.804;134.252;2022-12-18T12:27:56;6.72;;;4.32;;
46845;SDS011;33947;46.804;134.252;2022-12-18T12:34:17;9.45;;;4.22;;
46845;SDS011;33947;46.804;134.252;2022-12-18T12:40:44;5.32;;;3.20;;
46845;SDS011;33947;46.804;134.252;2022-12-18T12:44:31;3.33;;;2.80;;
46845;SDS011;33947;46.804;134.252;2022-12-18T12:47:43;13.52;;;5.00;;
46845;SDS011;33947;46.804;134.252;2022-12-18T12:50:51;5.22;;;3.10;;
46845;SDS011;33947;46.804;134.252;2022-12-18T12:53:57;6.00;;;2.95;;
46845;SDS011;33947;46.804;134.252;2022-12-18T13:00:28;14.63;;;4.78;;
46845;SDS011;33947;46.804;134.252;2022-12-18T13:13:27;2.70;;;2.50;;
46845;SDS011;33947;46.804;134.252;2022-12-18T13:20:25;7.97;;;4.13;;
46845;SDS011;33947;46.804;134.252;2022-12-18T13:23:38;7.32;;;4.25;;
46845;SDS011;33947;46.804;134.252;2022-12-18T13:26:43;9.38;;;4.68;;
46845;SDS011;33947;46.804;134.252;2022-12-18T13:29:48;4.15;;;2.65;;
46845;SDS011;33947;46.804;134.252;2022-12-18T13:33:41;6.82;;;4.10;;
46845;SDS011;33947;46.804;134.252;2022-12-18T13:36:26;15.65;;;5.40;;
46845;SDS011;33947;46.804;134.252;2022-12-18T13:39:35;12.20;;;6.57;;
46845;SDS011;33947;46.804;134.252;2022-12-18T13:42:40;18.83;;;8.13;;
46845;SDS011;33947;46.804;134.252;2022-12-18T13:46:22;12.55;;;6.05;;
46845;SDS011;33947;46.804;134.252;2022-12-18T13:52:44;4.03;;;3.53;;
46845;SDS011;33947;46.804;134.252;2022-12-18T14:02:30;4.22;;;2.47;;
46845;SDS011;33947;46.804;134.252;2022-12-18T14:05:35;6.20;;;2.70;;
46845;SDS011;33947;46.804;134.252;2022-12-18T14:08:46;20.23;;;6.60;;
46845;SDS011;33947;46.804;134.252;2022-12-18T14:11:51;40.15;;;10.68;;
46845;SDS011;33947;46.804;134.252;2022-12-18T14:21:35;6.53;;;5.20;;
46845;SDS011;33947;46.804;134.252;2022-12-18T14:24:41;60.53;;;21.90;;
46845;SDS011;33947;46.804;134.252;2022-12-18T14:27:48;20.67;;;9.65;;
46845;SDS011;33947;46.804;134.252;2022-12-18T14:30:55;23.52;;;10.93;;
46845;SDS011;33947;46.804;134.252;2022-12-18T14:37:04;28.85;;;14.35;;
46845;SDS011;33947;46.804;134.252;2022-12-18T14:40:13;27.08;;;18.15;;
46845;SDS011;33947;46.804;134.252;2022-12-18T14:43:18;107.22;;;41.67;;
46845;SDS011;33947;46.804;134.252;2022-12-18T14:46:38;187.85;;;54.78;;
46845;SDS011;33947;46.804;134.252;2022-12-18T14:52:52;106.45;;;54.28;;
46845;SDS011;33947;46.804;134.252;2022-12-18T14:55:57;122.03;;;55.67;;
46845;SDS011;33947;46.804;134.252;2022-12-18T14:59:03;94.63;;;32.60;;
46845;SDS011;33947;46.804;134.252;2022-12-18T15:02:23;115.22;;;46.03;;
46845;SDS011;33947;46.804;134.252;2022-12-18T15:05:29;191.15;;;55.10;;
46845;SDS011;33947;46.804;134.252;2022-12-18T15:08:36;72.38;;;32.92;;
46845;SDS011;33947;46.804;134.252;2022-12-18T15:14:45;122.40;;;41.30;;
46845;SDS011;33947;46.804;134.252;2022-12-18T15:17:56;76.63;;;25.10;;
46845;SDS011;33947;46.804;134.252;2022-12-18T15:21:08;26.95;;;18.48;;
46845;SDS011;33947;46.804;134.252;2022-12-18T15:24:26;137.82;;;46.33;;
46845;SDS011;33947;46.804;134.252;2022-12-18T15:27:35;136.98;;;43.80;;
46845;SDS011;33947;46.804;134.252;2022-12-18T15:30:46;52.97;;;30.40;;
46845;SDS011;33947;46.804;134.252;2022-12-18T15:34:24;68.75;;;34.63;;
46845;SDS011;33947;46.804;134.252;2022-12-18T15:37:29;104.10;;;38.90;;
46845;SDS011;33947;46.804;134.252;2022-12-18T15:40:34;90.18;;;33.08;;
46845;SDS011;33947;46.804;134.252;2022-12-18T15:43:40;84.80;;;34.47;;
46845;SDS011;33947;46.804;134.252;2022-12-18T15:46:46;126.10;;;39.40;;
46845;SDS011;33947;46.804;134.252;2022-12-18T15:49:51;52.15;;;24.63;;
46845;SDS011;33947;46.804;134.252;2022-12-18T15:55:59;41.25;;;19.48;;
46845;SDS011;33947;46.804;134.252;2022-12-18T15:59:22;67.18;;;31.02;;
46845;SDS011;33947;46.804;134.252;2022-12-18T16:05:32;76.93;;;32.72;;
46845;SDS011;33947;46.804;134.252;2022-12-18T16:08:37;57.55;;;28.60;;
46845;SDS011;33947;46.804;134.252;2022-12-18T16:11:43;114.45;;;44.97;;
46845;SDS011;33947;46.804;134.252;2022-12-18T16:14:50;55.05;;;24.38;;
46845;SDS011;33947;46.804;134.252;2022-12-18T16:20:59;94.97;;;33.42;;
46845;SDS011;33947;46.804;134.252;2022-12-18T16:24:04;137.07;;;46.03;;
46845;SDS011;33947;46.804;134.252;2022-12-18T16:27:09;107.78;;;34.95;;
46845;SDS011;33947;46.804;134.252;2022-12-18T16:30:17;62.78;;;22.80;;
46845;SDS011;33947;46.804;134.252;2022-12-18T16:33:24;53.33;;;17.33;;
46845;SDS011;33947;46.804;134.252;2022-12-18T16:36:29;64.93;;;28.35;;
46845;SDS011;33947;46.804;134.252;2022-12-18T16:39:33;34.95;;;14.45;;
46845;SDS011;33947;46.804;134.252;2022-12-18T16:42:40;15.30;;;10.50;;
46845;SDS011;33947;46.804;134.252;2022-12-18T16:45:46;14.07;;;10.57;;
46845;SDS011;33947;46.804;134.252;2022-12-18T16:48:50;16.77;;;8.88;;
46845;SDS011;33947;46.804;134.252;2022-12-18T16:51:55;28.00;;;7.97;;
46845;SDS011;33947;46.804;134.252;2022-12-18T16:55:03;17.40;;;10.23;;
46845;SDS011;33947;46.804;134.252;2022-12-18T16:58:08;29.77;;;12.85;;
46845;SDS011;33947;46.804;134.252;2022-12-18T17:01:13;15.95;;;8.48;;
46845;SDS011;33947;46.804;134.252;2022-12-18T17:07:22;9.80;;;6.55;;
46845;SDS011;33947;46.804;134.252;2022-12-18T17:10:27;1.50;;;1.40;;
46845;SDS011;33947;46.804;134.252;2022-12-18T17:13:32;16.20;;;6.45;;
46845;SDS011;33947;46.804;134.252;2022-12-18T17:16:37;21.83;;;7.22;;
46845;SDS011;33947;46.804;134.252;2022-12-18T17:22:46;3.40;;;3.15;;
46845;SDS011;33947;46.804;134.252;2022-12-18T17:25:53;2.70;;;2.50;;
46845;SDS011;33947;46.804;134.252;2022-12-18T17:28:59;7.05;;;4.25;;
46845;SDS011;33947;46.804;134.252;2022-12-18T17:32:03;3.00;;;2.45;;
46845;SDS011;33947;46.804;134.252;2022-12-18T17:35:08;10.57;;;3.92;;
46845;SDS011;33947;46.804;134.252;2022-12-18T17:41:18;4.70;;;2.50;;
46845;SDS011;33947;46.804;134.252;2022-12-18T17:44:23;2.47;;;2.28;;
46845;SDS011;33947;46.804;134.252;2022-12-18T17:47:28;4.70;;;3.80;;
46845;SDS011;33947;46.804;134.252;2022-12-18T17:50:36;5.03;;;2.78;;
46845;SDS011;33947;46.804;134.252;2022-12-18T17:53:41;1.67;;;1.58;;
46845;SDS011;33947;46.804;134.252;2022-12-18T17:56:46;8.30;;;3.08;;
46845;SDS011;33947;46.804;134.252;2022-12-18T17:59:51;2.45;;;2.05;;
46845;SDS011;33947;46.804;134.252;2022-12-18T18:02:56;12.88;;;2.85;;
46845;SDS011;33947;46.804;134.252;2022-12-18T18:06:02;4.40;;;3.72;;
46845;SDS011;33947;46.804;134.252;2022-12-18T18:09:08;6.03;;;3.15;;
46845;SDS011;33947;46.804;134.252;2022-12-18T18:12:18;2.78;;;2.53;;
46845;SDS011;33947;46.804;134.252;2022-12-18T18:15:41;2.45;;;2.25;;
46845;SDS011;33947;46.804;134.252;2022-12-18T18:18:45;57.65;;;15.43;;
46845;SDS011;33947;46.804;134.252;2022-12-18T18:21:51;18.10;;;8.63;;
46845;SDS011;33947;46.804;134.252;2022-12-18T18:24:56;6.80;;;3.60;;
46845;SDS011;33947;46.804;134.252;2022-12-18T18:28:04;4.78;;;3.83;;
46845;SDS011;33947;46.804;134.252;2022-12-18T18:31:09;8.80;;;4.32;;
46845;SDS011;33947;46.804;134.252;2022-12-18T18:34:22;5.85;;;3.25;;
46845;SDS011;33947;46.804;134.252;2022-12-18T18:37:27;4.40;;;2.50;;
46845;SDS011;33947;46.804;134.252;2022-12-18T18:40:32;39.90;;;14.82;;
46845;SDS011;33947;46.804;134.252;2022-12-18T18:43:36;7.03;;;4.88;;
46845;SDS011;33947;46.804;134.252;2022-12-18T18:49:45;15.98;;;9.40;;
46845;SDS011;33947;46.804;134.252;2022-12-18T18:55:57;4.13;;;2.05;;
46845;SDS011;33947;46.804;134.252;2022-12-18T18:59:25;7.70;;;3.97;;
46845;SDS011;33947;46.804;134.252;2022-12-18T19:02:33;3.03;;;2.80;;
46845;SDS011;33947;46.804;134.252;2022-12-18T19:08:47;11.00;;;5.03;;
46845;SDS011;33947;46.804;134.252;2022-12-18T19:11:52;11.15;;;5.18;;
46845;SDS011;33947;46.804;134.252;2022-12-18T19:15:18;7.20;;;3.22;;
46845;SDS011;33947;46.804;134.252;2022-12-18T19:18:24;3.20;;;2.67;;
46845;SDS011;33947;46.804;134.252;2022-12-18T19:21:28;5.80;;;2.67;;
46845;SDS011;33947;46.804;134.252;2022-12-18T19:24:36;7.18;;;4.20;;
46845;SDS011;33947;46.804;134.252;2022-12-18T19:27:41;5.07;;;3.67;;
46845;SDS011;33947;46.804;134.252;2022-12-18T19:30:45;3.25;;;2.95;;
46845;SDS011;33947;46.804;134.252;2022-12-18T19:33:50;8.27;;;6.80;;
46845;SDS011;33947;46.804;134.252;2022-12-18T19:36:54;8.55;;;4.28;;
46845;SDS011;33947;46.804;134.252;2022-12-18T19:40:01;4.03;;;3.63;;
46845;SDS011;33947;46.804;134.252;2022-12-18T19:43:14;3.92;;;3.10;;
46845;SDS011;33947;46.804;134.252;2022-12-18T19:46:19;5.28;;;3.40;;
46845;SDS011;33947;46.804;134.252;2022-12-18T19:49:25;2.95;;;2.63;;
46845;SDS011;33947;46.804;134.252;2022-12-18T19:52:31;5.60;;;3.78;;
46845;SDS011;33947;46.804;134.252;2022-12-18T19:55:42;5.80;;;4.10;;
46845;SDS011;33947;46.804;134.252;2022-12-18T19:58:49;5.47;;;4.32;;
46845;SDS011;33947;46.804;134.252;2022-12-18T20:01:53;10.88;;;5.30;;
46845;SDS011;33947;46.804;134.252;2022-12-18T20:04:58;4.85;;;3.88;;
46845;SDS011;33947;46.804;134.252;2022-12-18T20:08:03;12.32;;;3.67;;
46845;SDS011;33947;46.804;134.252;2022-12-18T20:11:09;7.47;;;5.80;;
46845;SDS011;33947;46.804;134.252;2022-12-18T20:17:24;9.90;;;5.10;;
46845;SDS011;33947;46.804;134.252;2022-12-18T20:20:31;15.07;;;11.35;;
46845;SDS011;33947;46.804;134.252;2022-12-18T20:23:35;7.60;;;4.70;;
46845;SDS011;33947;46.804;134.252;2022-12-18T20:26:40;16.20;;;6.43;;
46845;SDS011;33947;46.804;134.252;2022-12-18T20:29:45;14.80;;;3.95;;
46845;SDS011;33947;46.804;134.252;2022-12-18T20:32:50;12.02;;;4.93;;
46845;SDS011;33947;46.804;134.252;2022-12-18T20:36:00;3.28;;;2.55;;
46845;SDS011;33947;46.804;134.252;2022-12-18T20:39:10;4.43;;;3.30;;
46845;SDS011;33947;46.804;134.252;2022-12-18T20:42:16;8.05;;;3.75;;
46845;SDS011;33947;46.804;134.252;2022-12-18T20:45:20;8.68;;;3.92;;
46845;SDS011;33947;46.804;134.252;2022-12-18T20:48:26;55.45;;;25.80;;
46845;SDS011;33947;46.804;134.252;2022-12-18T20:51:31;31.27;;;12.82;;
46845;SDS011;33947;46.804;134.252;2022-12-18T20:54:37;5.70;;;4.22;;
46845;SDS011;33947;46.804;134.252;2022-12-18T20:57:42;7.30;;;3.80;;
46845;SDS011;33947;46.804;134.252;2022-12-18T21:00:47;4.07;;;3.17;;
46845;SDS011;33947;46.804;134.252;2022-12-18T21:06:57;10.07;;;5.30;;
46845;SDS011;33947;46.804;134.252;2022-12-18T21:10:04;12.48;;;5.80;;
46845;SDS011;33947;46.804;134.252;2022-12-18T21:13:10;14.40;;;9.55;;